createdAt,value
2023-02-11T00:01:44.178Z,58.10
2023-02-11T00:04:12.048Z,58.10
2023-02-11T00:06:40.001Z,58.00
2023-02-11T00:09:07.931Z,58.10
2023-02-11T00:11:35.840Z,58.20
2023-02-11T00:14:04.841Z,58.20
2023-02-11T00:16:32.928Z,58.20
2023-02-11T00:19:02.353Z,58.30
2023-02-11T00:21:30.308Z,58.40
2023-02-11T00:23:59.592Z,58.20
2023-02-11T00:26:29.563Z,58.30
2023-02-11T00:28:58.010Z,58.30
2023-02-11T00:31:26.089Z,58.40
2023-02-11T00:33:54.127Z,58.30
2023-02-11T00:36:24.657Z,58.40
2023-02-11T00:38:53.278Z,58.50
2023-02-11T00:41:21.302Z,58.50
2023-02-11T00:43:49.307Z,58.20
2023-02-11T00:46:20.209Z,57.90
2023-02-11T00:48:48.151Z,58.40
2023-02-11T00:51:15.995Z,58.00
2023-02-11T00:53:45.237Z,58.10
2023-02-11T00:56:13.144Z,58.00
2023-02-11T00:58:41.007Z,58.00
2023-02-11T01:01:09.094Z,58.10
2023-02-11T01:03:37.038Z,58.20
2023-02-11T01:06:05.918Z,58.20
2023-02-11T01:08:33.821Z,58.30
2023-02-11T01:11:05.047Z,58.30
2023-02-11T01:13:33.840Z,58.20
2023-02-11T01:16:01.846Z,58.20
2023-02-11T01:18:29.831Z,58.30
2023-02-11T01:20:57.753Z,58.30
2023-02-11T01:23:25.787Z,58.30
2023-02-11T01:25:54.320Z,58.30
2023-02-11T01:28:24.660Z,58.40
2023-02-11T01:30:53.592Z,58.40
2023-02-11T01:33:21.564Z,58.20
2023-02-11T01:35:50.043Z,58.00
2023-02-11T01:38:19.088Z,58.00
2023-02-11T01:40:50.780Z,58.00
2023-02-11T01:43:18.739Z,58.70
2023-02-11T01:46:20.300Z,58.30
2023-02-11T01:48:49.153Z,58.10
2023-02-11T01:51:19.842Z,58.20
2023-02-11T01:54:05.323Z,58.20
2023-02-11T01:56:50.791Z,58.30
2023-02-11T01:59:20.843Z,58.30
2023-02-11T02:01:52.930Z,58.40
2023-02-11T02:04:20.986Z,58.40
2023-02-11T02:06:51.186Z,58.30
2023-02-11T02:09:21.175Z,57.90
2023-02-11T02:11:49.231Z,58.00
2023-02-11T02:14:17.211Z,58.10
2023-02-11T02:16:46.362Z,58.10
2023-02-11T02:19:33.758Z,58.30
2023-02-11T02:22:17.809Z,58.20
2023-02-11T02:24:57.789Z,58.20
2023-02-11T02:27:30.878Z,58.30
2023-02-11T02:30:12.343Z,58.20
2023-02-11T02:33:02.138Z,58.30
2023-02-11T02:35:36.836Z,58.40
2023-02-11T02:38:07.913Z,58.50
2023-02-11T02:40:37.921Z,58.40
2023-02-11T02:43:05.828Z,58.10
2023-02-11T02:45:34.244Z,57.90
2023-02-11T02:48:03.479Z,57.90
2023-02-11T02:50:36.131Z,58.00
2023-02-11T02:53:12.875Z,58.10
2023-02-11T02:55:45.431Z,58.00
2023-02-11T02:58:34.642Z,58.20
2023-02-11T03:01:05.480Z,58.20
2023-02-11T03:03:38.525Z,58.30
2023-02-11T03:06:09.270Z,58.30
2023-02-11T03:08:39.455Z,58.30
2023-02-11T03:11:07.430Z,58.40
2023-02-11T03:13:36.184Z,58.30
2023-02-11T03:16:08.142Z,58.30
2023-02-11T03:18:37.865Z,58.30
2023-02-11T03:21:06.528Z,58.40
2023-02-11T03:23:36.788Z,58.40
2023-02-11T03:26:09.979Z,58.40
2023-02-11T03:28:40.080Z,58.40
2023-02-11T03:31:11.750Z,58.40
2023-02-11T03:33:43.705Z,58.40
2023-02-11T03:36:12.421Z,58.40
2023-02-11T03:38:43.705Z,58.40
2023-02-11T03:41:11.712Z,58.50
2023-02-11T03:43:41.603Z,58.50
2023-02-11T03:46:09.628Z,58.60
2023-02-11T03:48:38.989Z,58.50
2023-02-11T03:51:08.956Z,58.10
2023-02-11T03:53:36.994Z,57.90
2023-02-11T03:56:07.275Z,57.90
2023-02-11T03:58:35.197Z,58.00
2023-02-11T04:01:04.285Z,58.00
2023-02-11T04:03:33.682Z,58.00
2023-02-11T04:06:01.628Z,58.00
2023-02-11T04:08:31.880Z,58.80
2023-02-11T04:10:59.807Z,58.20
2023-02-11T04:13:27.749Z,58.20
2023-02-11T04:15:55.649Z,58.30
2023-02-11T04:18:23.551Z,58.40
2023-02-11T04:20:51.919Z,58.30
2023-02-11T04:23:19.839Z,58.30
2023-02-11T04:25:50.030Z,58.40
2023-02-11T04:28:18.179Z,58.40
2023-02-11T04:30:46.180Z,58.60
2023-02-11T04:33:14.112Z,58.60
2023-02-11T04:35:41.995Z,58.60
2023-02-11T04:38:09.878Z,58.70
2023-02-11T04:40:37.779Z,58.40
2023-02-11T04:43:07.095Z,58.10
2023-02-11T04:45:34.986Z,57.80
2023-02-11T04:48:03.623Z,58.00
2023-02-11T04:50:31.534Z,58.00
2023-02-11T04:52:59.466Z,58.00
2023-02-11T04:55:27.365Z,58.00
2023-02-11T04:57:55.558Z,58.10
2023-02-11T05:00:25.033Z,58.10
2023-02-11T05:02:52.937Z,58.20
2023-02-11T05:05:20.994Z,58.20
2023-02-11T05:07:48.916Z,58.30
2023-02-11T05:10:17.050Z,58.20
2023-02-11T05:12:44.951Z,58.10
2023-02-11T05:15:12.922Z,58.20
2023-02-11T05:17:42.202Z,58.20
2023-02-11T05:20:11.529Z,58.20
2023-02-11T05:22:39.747Z,58.30
2023-02-11T05:25:07.807Z,58.40
2023-02-11T05:27:35.717Z,58.40
2023-02-11T05:30:03.929Z,58.30
2023-02-11T05:32:31.779Z,58.00
2023-02-11T05:35:01.102Z,57.80
2023-02-11T05:37:29.072Z,57.90
2023-02-11T05:39:56.992Z,58.10
2023-02-11T05:42:24.846Z,58.00
2023-02-11T05:44:52.721Z,58.00
2023-02-11T05:47:20.594Z,58.70
2023-02-11T05:49:48.510Z,58.20
2023-02-11T05:52:17.798Z,58.20
2023-02-11T05:54:45.718Z,58.30
2023-02-11T05:57:13.814Z,58.30
2023-02-11T05:59:41.855Z,58.40
2023-02-11T06:02:09.913Z,58.50
2023-02-11T06:04:37.916Z,58.30
2023-02-11T06:07:05.974Z,58.10
2023-02-11T06:09:35.231Z,57.90
2023-02-11T06:12:03.150Z,58.10
2023-02-11T06:14:31.033Z,58.10
2023-02-11T06:16:58.921Z,58.30
2023-02-11T06:19:26.852Z,58.20
2023-02-11T06:21:54.700Z,58.30
2023-02-11T06:24:44.377Z,58.30
2023-02-11T06:27:11.794Z,58.40
2023-02-11T06:29:39.684Z,58.40
2023-02-11T06:32:11.654Z,58.50
2023-02-11T06:34:43.985Z,58.40
2023-02-11T06:37:11.891Z,58.40
2023-02-11T06:39:39.789Z,58.50
2023-02-11T06:42:08.063Z,58.40
2023-02-11T06:44:37.447Z,58.40
2023-02-11T06:47:05.485Z,58.40
2023-02-11T06:49:33.661Z,58.50
2023-02-11T06:52:01.616Z,58.60
2023-02-11T06:54:29.701Z,58.40
2023-02-11T06:56:57.656Z,58.10
2023-02-11T06:59:25.608Z,57.80
2023-02-11T07:01:54.873Z,57.80
2023-02-11T07:04:22.818Z,57.90
2023-02-11T07:06:51.032Z,58.00
2023-02-11T07:09:18.925Z,58.00
2023-02-11T07:11:46.867Z,58.10
2023-02-11T07:14:14.740Z,58.00
2023-02-11T07:16:42.682Z,58.00
2023-02-11T07:19:12.061Z,58.10
2023-02-11T07:21:40.306Z,58.20
2023-02-11T07:24:10.870Z,58.30
2023-02-11T07:26:39.246Z,58.30
2023-02-11T07:29:07.136Z,58.30
2023-02-11T07:31:35.213Z,58.30
2023-02-11T07:34:03.231Z,58.30
2023-02-11T07:36:32.833Z,58.30
2023-02-11T07:39:01.059Z,58.40
2023-02-11T07:41:29.055Z,58.60
2023-02-11T07:43:57.006Z,58.40
2023-02-11T07:46:25.655Z,58.40
2023-02-11T07:48:53.787Z,58.40
2023-02-11T07:51:22.560Z,58.50
2023-02-11T07:53:52.028Z,58.60
2023-02-11T07:56:20.568Z,58.70
2023-02-11T07:58:48.530Z,58.70
2023-02-11T08:01:17.784Z,58.60
2023-02-11T08:03:45.820Z,58.40
2023-02-11T08:06:15.262Z,58.00
2023-02-11T08:08:43.321Z,57.90
2023-02-11T08:11:13.175Z,58.00
2023-02-11T08:13:41.215Z,58.10
2023-02-11T08:16:18.892Z,58.20
2023-02-11T08:18:46.783Z,58.00
2023-02-11T08:21:14.698Z,58.20
2023-02-11T08:23:43.216Z,58.20
2023-02-11T08:26:14.321Z,58.20
2023-02-11T08:28:43.020Z,58.30
2023-02-11T08:31:12.052Z,58.40
2023-02-11T08:33:41.105Z,58.30
2023-02-11T08:36:09.888Z,58.40
2023-02-11T08:38:37.870Z,58.30
2023-02-11T08:41:06.138Z,58.40
2023-02-11T08:43:35.410Z,58.40
2023-02-11T08:46:03.427Z,58.50
2023-02-11T08:48:31.466Z,58.60
2023-02-11T08:50:59.399Z,58.60
2023-02-11T08:53:27.319Z,58.40
2023-02-11T08:55:55.788Z,58.20
2023-02-11T08:58:23.732Z,58.10
2023-02-11T09:00:53.326Z,58.20
2023-02-11T09:03:21.496Z,58.20
2023-02-11T09:05:52.955Z,58.40
2023-02-11T09:08:20.921Z,58.30
2023-02-11T09:10:49.177Z,58.40
2023-02-11T09:13:17.444Z,58.40
2023-02-11T09:15:46.640Z,58.40
2023-02-11T09:18:15.930Z,58.50
2023-02-11T09:20:43.882Z,58.60
2023-02-11T09:23:12.433Z,58.60
2023-02-11T09:25:41.070Z,58.60
2023-02-11T09:28:09.061Z,58.60
2023-02-11T09:30:37.402Z,58.60
2023-02-11T09:33:05.307Z,58.60
2023-02-11T09:35:34.891Z,58.70
2023-02-11T09:38:02.813Z,58.70
2023-02-11T09:40:30.730Z,58.80
2023-02-11T09:43:04.025Z,58.60
2023-02-11T09:45:32.173Z,58.30
2023-02-11T09:48:03.328Z,58.10
2023-02-11T09:50:35.519Z,58.20
2023-02-11T09:53:04.431Z,58.20
2023-02-11T09:55:34.159Z,58.30
2023-02-11T09:58:02.107Z,58.30
2023-02-11T10:00:33.205Z,58.40
2023-02-11T10:03:23.258Z,58.40
2023-02-11T10:06:07.472Z,58.40
2023-02-11T10:08:39.036Z,58.50
2023-02-11T10:11:09.318Z,58.60
2023-02-11T10:13:44.531Z,58.70
2023-02-11T10:16:20.514Z,58.60
2023-02-11T10:18:55.698Z,58.60
2023-02-11T10:21:30.666Z,58.70
2023-02-11T10:24:00.804Z,58.60
2023-02-11T10:26:30.789Z,58.70
2023-02-11T10:29:01.782Z,58.70
2023-02-11T10:31:35.364Z,58.80
2023-02-11T10:34:05.148Z,58.60
2023-02-11T10:36:35.983Z,58.40
2023-02-11T10:39:03.970Z,58.20
2023-02-11T10:41:33.913Z,58.20
2023-02-11T10:44:01.845Z,58.20
2023-02-11T10:46:32.545Z,58.20
2023-02-11T10:49:00.452Z,58.30
2023-02-11T10:51:29.282Z,58.40
2023-02-11T10:54:19.467Z,58.40
2023-02-11T10:56:50.020Z,58.50
2023-02-11T10:59:21.763Z,58.50
2023-02-11T11:01:50.824Z,58.60
2023-02-11T11:04:38.969Z,58.60
2023-02-11T11:07:18.955Z,58.60
2023-02-11T11:09:51.725Z,58.30
2023-02-11T11:12:34.717Z,58.30
2023-02-11T11:15:04.193Z,59.00
2023-02-11T11:17:32.059Z,58.40
2023-02-11T11:20:23.444Z,58.50
2023-02-11T11:22:52.294Z,58.50
2023-02-11T11:25:26.236Z,58.60
2023-02-11T11:27:55.505Z,58.60
2023-02-11T11:30:23.535Z,58.60
2023-02-11T11:32:51.387Z,58.60
2023-02-11T11:35:24.691Z,58.70
2023-02-11T11:37:54.860Z,58.70
2023-02-11T11:40:25.823Z,58.70
2023-02-11T11:43:08.185Z,58.60
2023-02-11T11:45:36.231Z,58.40
2023-02-11T11:48:05.420Z,58.40
2023-02-11T11:50:35.078Z,58.40
2023-02-11T11:53:05.989Z,58.50
2023-02-11T11:55:37.537Z,58.50
2023-02-11T11:58:06.815Z,58.40
2023-02-11T12:00:37.373Z,58.60
2023-02-11T12:03:41.623Z,58.60
2023-02-11T12:06:19.544Z,58.70
2023-02-11T12:08:53.675Z,58.70
2023-02-11T12:11:25.515Z,58.80
2023-02-11T12:14:01.588Z,58.70
2023-02-11T12:16:34.850Z,58.80
2023-02-11T12:19:33.154Z,58.80
2023-02-11T12:22:05.036Z,58.80
2023-02-11T12:24:43.054Z,58.80
2023-02-11T12:27:14.326Z,58.80
2023-02-11T12:29:49.211Z,58.80
2023-02-11T12:32:23.124Z,58.70
2023-02-11T12:35:01.815Z,58.50
2023-02-11T12:37:37.368Z,58.30
2023-02-11T12:40:11.095Z,58.40
2023-02-11T12:43:05.637Z,58.40
2023-02-11T12:45:41.996Z,59.00
2023-02-11T12:48:17.892Z,58.30
2023-02-11T12:50:49.733Z,58.40
2023-02-11T12:53:47.866Z,58.50
2023-02-11T12:56:17.699Z,58.60
2023-02-11T12:58:46.998Z,58.70
2023-02-11T13:01:19.678Z,58.80
2023-02-11T13:03:49.426Z,58.40
2023-02-11T13:06:20.331Z,58.20
2023-02-11T13:08:49.180Z,58.10
2023-02-11T13:11:19.803Z,58.20
2023-02-11T13:13:52.429Z,58.30
2023-02-11T13:16:23.808Z,58.30
2023-02-11T13:18:53.253Z,58.40
2023-02-11T13:21:31.984Z,58.40
2023-02-11T13:24:05.462Z,58.40
2023-02-11T13:26:34.976Z,58.50
2023-02-11T13:29:11.386Z,58.50
2023-02-11T13:31:39.359Z,58.50
2023-02-11T13:34:24.287Z,58.60
2023-02-11T13:36:55.780Z,58.60
2023-02-11T13:39:23.670Z,58.80
2023-02-11T13:41:52.878Z,58.70
2023-02-11T13:44:24.922Z,58.40
2023-02-11T13:46:58.176Z,58.50
2023-02-11T13:49:28.665Z,58.50
2023-02-11T13:51:56.789Z,58.70
2023-02-11T13:54:33.262Z,58.70
2023-02-11T13:57:23.619Z,58.70
2023-02-11T13:59:53.198Z,58.80
2023-02-11T14:02:42.321Z,58.90
2023-02-11T14:05:45.123Z,58.90
2023-02-11T14:08:38.451Z,59.00
2023-02-11T14:11:12.267Z,59.10
2023-02-11T14:14:02.867Z,59.00
2023-02-11T14:16:38.289Z,59.10
2023-02-11T14:19:06.932Z,59.10
2023-02-11T14:21:37.087Z,59.10
2023-02-11T14:24:46.842Z,59.10
2023-02-11T14:27:21.336Z,59.20
2023-02-11T14:29:53.602Z,59.20
2023-02-11T14:32:33.190Z,59.10
2023-02-11T14:35:03.232Z,58.80
2023-02-11T14:37:38.814Z,58.60
2023-02-11T14:40:11.852Z,58.70
2023-02-11T14:42:39.814Z,58.80
2023-02-11T14:45:10.823Z,58.90
2023-02-11T14:47:43.898Z,58.90
2023-02-11T14:50:17.471Z,59.00
2023-02-11T14:52:45.489Z,59.10
2023-02-11T14:55:17.961Z,59.10
2023-02-11T14:57:45.986Z,59.20
2023-02-11T15:00:18.644Z,59.20
2023-02-11T15:02:47.999Z,59.30
2023-02-11T15:05:21.117Z,59.20
2023-02-11T15:07:49.707Z,59.00
2023-02-11T15:10:20.043Z,59.00
2023-02-11T15:12:49.874Z,59.10
2023-02-11T15:15:17.975Z,59.20
2023-02-11T15:17:47.310Z,59.30
2023-02-11T15:20:20.092Z,59.30
2023-02-11T15:22:48.051Z,59.40
2023-02-11T15:25:19.459Z,59.40
2023-02-11T15:27:49.059Z,59.40
2023-02-11T15:30:26.141Z,59.40
2023-02-11T15:32:58.686Z,59.50
2023-02-11T15:35:28.452Z,59.50
2023-02-11T15:37:57.478Z,59.50
2023-02-11T15:40:27.665Z,59.60
2023-02-11T15:42:58.487Z,59.60
2023-02-11T15:45:29.759Z,59.60
2023-02-11T15:48:00.975Z,60.30
2023-02-11T15:50:30.056Z,59.80
2023-02-11T15:52:58.402Z,59.80
2023-02-11T15:55:26.582Z,59.80
2023-02-11T15:57:55.814Z,59.60
2023-02-11T16:00:24.709Z,59.30
2023-02-11T16:02:52.628Z,59.20
2023-02-11T16:05:28.781Z,59.20
2023-02-11T16:07:56.892Z,59.40
2023-02-11T16:10:26.627Z,59.40
2023-02-11T16:13:16.735Z,59.50
2023-02-11T16:15:46.828Z,59.60
2023-02-11T16:18:39.305Z,59.60
2023-02-11T16:21:16.500Z,59.70
2023-02-11T16:23:44.734Z,59.80
2023-02-11T16:26:20.732Z,59.80
2023-02-11T16:28:48.667Z,59.80
2023-02-11T16:31:16.798Z,59.80
2023-02-11T16:33:44.877Z,59.80
2023-02-11T16:36:17.034Z,60.30
2023-02-11T16:38:44.997Z,59.90
2023-02-11T16:41:12.883Z,60.00
2023-02-11T16:43:40.855Z,60.00
2023-02-11T16:46:09.479Z,60.00
2023-02-11T16:48:37.470Z,60.00
2023-02-11T16:51:07.983Z,60.10
2023-02-11T16:53:37.317Z,60.20
2023-02-11T16:56:05.607Z,60.20
2023-02-11T16:58:33.651Z,60.10
2023-02-11T17:01:01.859Z,60.20
2023-02-11T17:03:30.250Z,60.00
2023-02-11T17:05:58.469Z,59.80
2023-02-11T17:08:26.608Z,59.40
2023-02-11T17:10:55.863Z,59.40
2023-02-11T17:13:23.755Z,59.50
2023-02-11T17:15:52.027Z,59.60
2023-02-11T17:18:20.292Z,59.50
2023-02-11T17:20:48.226Z,59.60
2023-02-11T17:23:16.213Z,59.70
2023-02-11T17:25:44.215Z,59.80
2023-02-11T17:28:13.540Z,59.90
2023-02-11T17:30:43.526Z,59.80
2023-02-11T17:33:11.533Z,59.80
2023-02-11T17:35:41.447Z,59.80
2023-02-11T17:38:09.336Z,59.80
2023-02-11T17:40:37.302Z,59.90
2023-02-11T17:43:05.265Z,60.00
2023-02-11T17:45:34.592Z,60.30
2023-02-11T17:48:02.489Z,60.10
2023-02-11T17:50:30.378Z,59.50
2023-02-11T17:52:58.664Z,59.70
2023-02-11T17:55:26.596Z,59.40
2023-02-11T17:57:55.287Z,59.50
2023-02-11T18:00:23.675Z,59.50
2023-02-11T18:02:52.953Z,59.60
2023-02-11T18:05:20.888Z,59.70
2023-02-11T18:07:48.825Z,59.60
2023-02-11T18:10:16.734Z,59.60
2023-02-11T18:12:44.698Z,59.70
2023-02-11T18:15:13.183Z,59.80
2023-02-11T18:17:41.087Z,59.90
2023-02-11T18:20:11.359Z,60.00
2023-02-11T18:22:40.864Z,60.00
2023-02-11T18:25:09.483Z,60.00
2023-02-11T18:27:37.531Z,60.20
2023-02-11T18:30:06.450Z,60.20
2023-02-11T18:32:34.386Z,60.30
2023-02-11T18:35:02.282Z,60.50
2023-02-11T18:37:31.524Z,60.40
2023-02-11T18:39:59.651Z,60.40
2023-02-11T18:42:28.049Z,60.40
2023-02-11T18:44:56.180Z,60.10
2023-02-11T18:47:24.108Z,60.40
2023-02-11T18:49:52.011Z,59.80
2023-02-11T18:52:19.898Z,59.80
2023-02-11T18:54:51.369Z,59.90
2023-02-11T18:57:19.272Z,60.00
2023-02-11T18:59:47.373Z,60.10
2023-02-11T19:02:15.271Z,60.10
2023-02-11T19:04:43.208Z,60.10
2023-02-11T19:07:11.264Z,60.30
2023-02-11T19:09:39.184Z,60.30
2023-02-11T19:12:09.256Z,60.50
2023-02-11T19:14:37.170Z,60.50
2023-02-11T19:17:06.425Z,60.60
2023-02-11T19:19:35.247Z,60.40
2023-02-11T19:22:03.838Z,60.50
2023-02-11T19:24:33.917Z,60.50
2023-02-11T19:27:05.227Z,60.70
2023-02-11T19:29:35.057Z,60.70
2023-02-11T19:32:03.324Z,60.70
2023-02-11T19:34:31.238Z,60.60
2023-02-11T19:37:00.758Z,60.60
2023-02-11T19:39:28.742Z,60.60
2023-02-11T19:41:56.598Z,60.70
2023-02-11T19:44:24.526Z,60.80
2023-02-11T19:46:54.709Z,60.90
2023-02-11T19:49:25.839Z,60.60
2023-02-11T19:51:55.230Z,60.20
2023-02-11T19:54:23.238Z,60.10
2023-02-11T19:56:51.126Z,60.10
2023-02-11T19:59:19.068Z,60.10
2023-02-11T20:01:48.966Z,60.90
2023-02-11T20:04:18.371Z,60.20
2023-02-11T20:06:48.040Z,60.20
2023-02-11T20:09:16.166Z,60.30
2023-02-11T20:11:44.121Z,60.40
2023-02-11T20:14:14.598Z,60.30
2023-02-11T20:16:49.285Z,60.50
2023-02-11T20:19:21.791Z,60.40
2023-02-11T20:21:51.595Z,60.50
2023-02-11T20:24:19.794Z,60.50
2023-02-11T20:26:48.434Z,60.50
2023-02-11T20:29:16.742Z,60.50
2023-02-11T20:31:44.898Z,60.50
2023-02-11T20:34:12.964Z,60.60
2023-02-11T20:36:42.246Z,60.80
2023-02-11T20:39:11.285Z,60.60
2023-02-11T20:41:40.683Z,60.80
2023-02-11T20:44:09.738Z,59.80
2023-02-11T20:46:39.940Z,59.80
2023-02-11T20:49:08.815Z,59.90
2023-02-11T20:51:37.343Z,60.10
2023-02-11T20:54:07.092Z,60.00
2023-02-11T20:56:35.809Z,60.10
2023-02-11T20:59:03.933Z,60.10
2023-02-11T21:01:32.665Z,60.00
2023-02-11T21:04:02.161Z,60.10
2023-02-11T21:06:32.742Z,60.60
2023-02-11T21:09:00.713Z,60.20
2023-02-11T21:11:31.317Z,60.30
2023-02-11T21:13:59.522Z,60.30
2023-02-11T21:16:27.579Z,60.20
2023-02-11T21:18:55.581Z,60.30
2023-02-11T21:21:23.555Z,60.30
2023-02-11T21:23:51.472Z,60.40
2023-02-11T21:26:19.804Z,60.60
2023-02-11T21:28:49.456Z,60.40
2023-02-11T21:31:19.691Z,59.90
2023-02-11T21:33:47.772Z,59.80
2023-02-11T21:36:15.828Z,59.90
2023-02-11T21:38:43.754Z,60.00
2023-02-11T21:41:11.745Z,60.10
2023-02-11T21:43:39.661Z,59.90
2023-02-11T21:46:12.786Z,60.00
2023-02-11T21:48:40.732Z,60.00
2023-02-11T21:51:10.061Z,60.10
2023-02-11T21:53:37.996Z,60.10
2023-02-11T21:56:06.916Z,60.30
2023-02-11T21:58:34.864Z,60.30
2023-02-11T22:01:02.812Z,60.10
2023-02-11T22:03:32.067Z,60.20
2023-02-11T22:06:00.008Z,60.20
2023-02-11T22:08:27.912Z,60.10
2023-02-11T22:11:03.174Z,60.30
2023-02-11T22:13:31.097Z,60.40
2023-02-11T22:16:00.119Z,60.50
2023-02-11T22:18:28.182Z,60.30
2023-02-11T22:21:00.510Z,60.00
2023-02-11T22:23:28.734Z,59.70
2023-02-11T22:25:56.776Z,59.80
2023-02-11T22:28:25.352Z,59.80
2023-02-11T22:30:55.137Z,60.10
2023-02-11T22:33:23.165Z,59.80
2023-02-11T22:36:00.201Z,59.90
2023-02-11T22:38:28.734Z,60.00
2023-02-11T22:40:56.878Z,60.00
2023-02-11T22:43:24.810Z,60.00
2023-02-11T22:45:53.030Z,60.20
2023-02-11T22:48:23.113Z,60.20
2023-02-11T22:50:51.165Z,60.10
2023-02-11T22:53:20.435Z,60.20
2023-02-11T22:55:48.340Z,60.00
2023-02-11T22:58:16.271Z,60.10
2023-02-11T23:00:44.174Z,60.20
2023-02-11T23:03:12.211Z,60.40
2023-02-11T23:05:40.234Z,60.40
2023-02-11T23:08:08.571Z,60.10
2023-02-11T23:10:38.359Z,59.90
2023-02-11T23:13:06.500Z,59.90
2023-02-11T23:15:34.620Z,59.90
2023-02-11T23:18:02.536Z,59.90
2023-02-11T23:20:30.435Z,60.10
2023-02-11T23:22:58.346Z,60.00
2023-02-11T23:25:26.239Z,60.00
2023-02-11T23:27:55.519Z,60.00
2023-02-11T23:30:23.476Z,60.00
2023-02-11T23:32:51.507Z,60.10
2023-02-11T23:35:23.163Z,60.30
2023-02-11T23:37:51.328Z,60.00
2023-02-11T23:40:20.204Z,60.20
2023-02-11T23:42:49.037Z,60.00
2023-02-11T23:45:18.595Z,60.10
2023-02-11T23:47:47.572Z,60.10
2023-02-11T23:50:15.469Z,60.20
2023-02-11T23:52:44.683Z,60.40
2023-02-11T23:55:12.554Z,60.30
2023-02-11T23:57:40.429Z,60.00
